Time;durP1;ratioP1;P1;durP2;ratioP2;P2;SDS_P1;SDS_P2;PMS_P1;PMS_P2;Temp;Humidity;BMP_temperature;BMP_pressure;BME280_temperature;BME280_humidity;BME280_pressure;Samples;Min_cycle;Max_cycle;Signal;HPM_P1;HPM_P2
2022/01/13 00:02:10;;;;;;;3.30;3.20;;;;;;;2.12;100.00;103673.00;4405175;32;20273;-73
2022/01/13 00:04:36;;;;;;;5.05;4.65;;;;;;;2.14;100.00;103684.28;4409495;32;20175;-75
2022/01/13 00:07:01;;;;;;;3.80;3.55;;;;;;;2.07;100.00;103672.88;4414448;32;20090;-76
2022/01/13 00:09:27;;;;;;;3.65;3.50;;;;;;;1.96;100.00;103667.34;4424517;32;20068;-73
2022/01/13 00:11:53;;;;;;;4.82;3.42;;;;;;;1.04;100.00;103516.88;4415625;32;20064;-74
2022/01/13 00:17:07;;;;;;;2.92;2.83;;;;;;;2.03;100.00;103690.87;4421441;32;20308;-74
2022/01/13 00:22:19;;;;;;;2.80;2.70;;;;;;;1.92;100.00;103690.50;4424614;32;20060;-74
2022/01/13 00:24:48;;;;;;;3.10;3.00;;;;;;;1.94;100.00;103701.78;4415355;32;20539;-74
2022/01/13 00:27:14;;;;;;;3.03;2.92;;;;;;;1.86;100.00;103691.19;4415201;32;20072;-73
2022/01/13 00:29:42;;;;;;;5.07;4.87;;;;;;;1.92;100.00;103704.31;4406714;32;20863;-74
2022/01/13 00:32:08;;;;;;;2.87;2.78;;;;;;;1.88;100.00;103707.66;4410717;32;21006;-73
2022/01/13 00:34:33;;;;;;;4.68;4.45;;;;;;;1.92;100.00;103701.75;4409999;32;20065;-73
2022/01/13 00:36:59;;;;;;;3.45;3.25;;;;;;;1.97;100.00;103704.50;4412744;32;20125;-72
2022/01/13 00:39:24;;;;;;;3.25;3.12;;;;;;;1.97;100.00;103699.31;4416094;32;20085;-73
2022/01/13 00:41:50;;;;;;;3.85;3.62;;;;;;;1.93;100.00;103698.34;4411610;32;21227;-74
2022/01/13 00:44:19;;;;;;;3.78;3.58;;;;;;;1.94;100.00;103707.84;4418353;32;20129;-75
2022/01/13 00:46:46;;;;;;;3.33;3.22;;;;;;;1.78;100.00;103690.06;4411742;32;20076;-75
2022/01/13 00:49:13;;;;;;;3.17;3.08;;;;;;;1.90;100.00;103710.31;4414488;32;20865;-73
2022/01/13 00:51:38;;;;;;;4.53;4.32;;;;;;;1.93;100.00;103713.00;4409709;32;20074;-75
2022/01/13 00:54:05;;;;;;;3.28;3.17;;;;;;;1.85;100.00;103712.75;4427051;32;20953;-74
2022/01/13 00:56:32;;;;;;;4.40;4.10;;;;;;;1.57;100.00;103667.81;4412447;32;20075;-73
2022/01/13 00:59:03;;;;;;;3.47;3.37;;;;;;;1.86;100.00;103708.44;4417512;32;20200;-75
2022/01/13 01:01:28;;;;;;;4.35;4.15;;;;;;;1.84;100.00;103707.50;4409599;32;20224;-73
2022/01/13 01:03:54;;;;;;;3.40;3.20;;;;;;;1.82;100.00;103699.69;4410720;32;20586;-73
2022/01/13 01:06:20;;;;;;;3.05;2.95;;;;;;;1.89;100.00;103705.97;4412545;32;20144;-74
2022/01/13 01:08:45;;;;;;;2.80;2.70;;;;;;;1.88;100.00;103707.66;4411298;32;20348;-74
2022/01/13 01:11:11;;;;;;;4.15;3.95;;;;;;;1.90;100.00;103715.47;4415512;32;20344;-74
2022/01/13 01:13:38;;;;;;;4.22;4.03;;;;;;;1.78;100.00;103706.50;4415665;32;20167;-74
2022/01/13 01:16:07;;;;;;;3.10;3.00;;;;;;;1.45;100.00;103646.72;4411707;32;20122;-73
2022/01/13 01:18:48;;;;;;;4.32;4.12;;;;;;;1.71;100.00;103701.94;4413431;32;20167;-73
2022/01/13 01:24:09;;;;;;;5.22;5.00;;;;;;;1.78;100.00;103710.78;4426425;32;20194;-74
2022/01/13 01:31:38;;;;;;;4.57;4.37;;;;;;;1.81;100.00;103718.66;4420979;32;20421;-74
2022/01/13 01:34:24;;;;;;;3.00;2.90;;;;;;;1.68;100.00;103694.06;4411282;32;20072;-74
2022/01/13 01:36:51;;;;;;;3.72;3.53;;;;;;;1.84;100.00;103721.34;4411843;32;20072;-74
2022/01/13 01:39:16;;;;;;;3.33;3.00;;;;;;;1.83;100.00;103735.13;4411156;32;20060;-73
2022/01/13 01:41:44;;;;;;;4.50;4.30;;;;;;;1.82;100.00;103723.00;4408753;32;20148;-72
2022/01/13 01:44:10;;;;;;;2.80;2.70;;;;;;;1.85;100.00;103737.78;4413386;32;20182;-74
2022/01/13 01:46:38;;;;;;;5.37;5.07;;;;;;;1.87;100.00;103730.94;4420648;32;20575;-74
2022/01/13 01:49:08;;;;;;;3.10;3.00;;;;;;;1.76;100.00;103715.94;4423661;32;20076;-73
2022/01/13 01:51:33;;;;;;;5.72;4.87;;;;;;;1.88;100.00;103720.59;4412337;32;20076;-72
2022/01/13 01:53:59;;;;;;;3.60;3.40;;;;;;;1.12;100.00;103598.19;4414763;32;20067;-73
2022/01/13 01:56:24;;;;;;;2.78;2.67;;;;;;;1.91;100.00;103723.31;4413665;32;20082;-73
2022/01/13 01:58:50;;;;;;;2.87;2.78;;;;;;;1.89;100.00;103724.97;4418953;32;20578;-73
2022/01/13 02:01:15;;;;;;;3.25;3.05;;;;;;;1.88;100.00;103723.19;4409031;32;20084;-73
2022/01/13 02:03:41;;;;;;;4.50;4.30;;;;;;;1.39;100.00;103643.94;4409378;32;20087;-73
2022/01/13 02:06:07;;;;;;;2.72;2.62;;;;;;;1.87;100.00;103731.81;4410821;32;20060;-73
2022/01/13 02:08:32;;;;;;;3.25;3.10;;;;;;;1.88;100.00;103737.84;4409278;32;20069;-73
2022/01/13 02:10:57;;;;;;;3.85;3.67;;;;;;;1.90;100.00;103731.03;4419386;32;20063;-73
2022/01/13 02:13:24;;;;;;;2.80;2.70;;;;;;;1.76;100.00;103718.50;4410143;32;20578;-73
2022/01/13 02:16:05;;;;;;;3.20;3.10;;;;;;;1.90;100.00;103731.87;4403143;32;20104;-72
2022/01/13 02:18:47;;;;;;;2.75;2.65;;;;;;;1.79;100.00;103730.69;4430869;32;20086;-73
2022/01/13 02:21:12;;;;;;;2.80;2.70;;;;;;;1.55;100.00;103685.00;4416207;32;20533;-73
2022/01/13 02:23:39;;;;;;;3.00;2.90;;;;;;;1.79;100.00;103730.69;4411955;32;20178;-72
2022/01/13 02:26:09;;;;;;;3.60;3.40;;;;;;;1.79;100.00;103717.72;4417512;32;20635;-72
2022/01/13 02:28:34;;;;;;;3.00;2.90;;;;;;;1.77;100.00;103722.84;4430308;32;20227;-73
2022/01/13 02:31:00;;;;;;;3.42;3.33;;;;;;;1.53;100.00;103673.72;4415456;32;20579;-72
2022/01/13 02:33:25;;;;;;;2.80;2.70;;;;;;;1.81;100.00;103720.38;4416892;32;20077;-73
2022/01/13 02:35:50;;;;;;;3.50;3.30;;;;;;;1.64;100.00;103688.72;4415325;32;20079;-73
2022/01/13 02:38:16;;;;;;;3.37;3.20;;;;;;;1.62;100.00;103686.09;4412664;32;20080;-74
2022/01/13 02:40:41;;;;;;;4.18;3.97;;;;;;;1.83;100.00;103722.19;4407117;32;20552;-73
2022/01/13 02:43:07;;;;;;;2.70;2.60;;;;;;;1.84;100.00;103717.87;4423885;32;20121;-72
2022/01/13 02:45:35;;;;;;;4.80;4.60;;;;;;;1.74;100.00;103714.97;4410356;32;20075;-71
2022/01/13 02:48:46;;;;;;;3.08;2.97;;;;;;;1.70;100.00;103715.69;4414122;32;20463;-73
2022/01/13 02:50:46;;;;;;;3.40;3.30;;;;;;;1.74;100.00;103719.28;4420965;32;20418;-74
2022/01/13 02:53:12;;;;;;;3.78;3.58;;;;;;;1.75;100.00;103708.97;4417358;32;20920;-76
2022/01/13 02:55:37;;;;;;;4.57;4.37;;;;;;;1.70;100.00;103694.97;4401906;32;20105;-75
2022/01/13 02:58:03;;;;;;;3.00;2.90;;;;;;;1.76;100.00;103708.16;4419403;32;20072;-75
2022/01/13 03:00:29;;;;;;;3.78;3.62;;;;;;;1.76;100.00;103707.25;4421340;32;20103;-73
2022/01/13 03:02:55;;;;;;;3.62;3.33;;;;;;;1.74;100.00;103704.59;4412064;32;20127;-74
2022/01/13 03:05:20;;;;;;;2.72;2.62;;;;;;;1.77;100.00;103701.25;4415929;32;20063;-74
2022/01/13 03:07:46;;;;;;;3.15;3.05;;;;;;;1.75;100.00;103696.03;4410470;32;20574;-73
2022/01/13 03:10:12;;;;;;;3.95;3.75;;;;;;;1.76;100.00;103695.22;4410833;32;20137;-74
2022/01/13 03:12:41;;;;;;;4.57;4.37;;;;;;;1.56;100.00;103658.31;4408711;32;20461;-73
2022/01/13 03:15:06;;;;;;;3.30;3.10;;;;;;;1.79;100.00;103691.84;4412382;32;20099;-74
2022/01/13 03:17:32;;;;;;;4.25;4.05;;;;;;;1.72;100.00;103690.72;4414481;32;20570;-76
2022/01/13 03:19:57;;;;;;;3.00;2.90;;;;;;;1.74;100.00;103685.62;4411485;32;20212;-75
2022/01/13 03:22:22;;;;;;;2.75;2.65;;;;;;;1.61;100.00;103660.16;4409873;32;20068;-73
2022/01/13 03:24:48;;;;;;;3.55;3.45;;;;;;;1.74;100.00;103686.47;4410662;32;20094;-72
2022/01/13 03:27:19;;;;;;;3.30;3.10;;;;;;;1.74;100.00;103689.06;4412078;32;20247;-72
2022/01/13 03:29:46;;;;;;;4.45;4.05;;;;;;;1.39;100.00;103628.41;4408027;32;20443;-73
2022/01/13 03:32:11;;;;;;;2.80;2.70;;;;;;;1.73;100.00;103694.22;4415270;32;20141;-72
2022/01/13 03:34:36;;;;;;;5.57;5.18;;;;;;;1.66;100.00;103702.59;4409093;32;20091;-74
2022/01/13 03:37:02;;;;;;;2.97;2.87;;;;;;;1.53;100.00;103683.22;4408630;32;20083;-73
2022/01/13 03:39:28;;;;;;;4.25;4.05;;;;;;;1.48;100.00;103698.56;4409261;32;20068;-72
2022/01/13 03:41:53;;;;;;;3.00;2.90;;;;;;;1.67;100.00;103709.56;4411345;32;20554;-75
2022/01/13 03:44:27;;;;;;;3.33;3.12;;;;;;;1.70;100.00;103700.16;4413219;32;20067;-73
2022/01/13 03:46:53;;;;;;;3.08;2.97;;;;;;;1.74;100.00;103704.59;4416563;32;20090;-73
2022/01/13 03:49:20;;;;;;;2.90;2.80;;;;;;;1.74;100.00;103695.97;4411918;32;20581;-72
2022/01/13 03:52:23;;;;;;;3.40;3.30;;;;;;;1.74;100.00;103695.97;4411503;32;20094;-73
2022/01/13 03:55:23;;;;;;;3.72;3.58;;;;;;;1.51;100.00;103657.28;4441432;32;20060;-74
2022/01/13 03:58:26;;;;;;;2.80;2.70;;;;;;;1.76;100.00;103694.31;4443835;32;20075;-75
2022/01/13 04:01:10;;;;;;;;;;;;;;;1.73;100.00;103696.81;4441845;32;20084;-75
2022/01/13 04:03:36;;;;;;;2.97;2.87;;;;;;;1.54;100.00;103684.94;4455201;32;20493;-76
2022/01/13 04:06:33;;;;;;;6.47;3.70;;;;;;;1.68;100.00;103698.34;4415818;32;20076;-75
2022/01/13 04:08:58;;;;;;;2.85;2.75;;;;;;;1.62;100.00;103682.62;4444878;32;20065;-72
2022/01/13 04:11:29;;;;;;;4.95;3.45;;;;;;;1.69;100.00;103702.72;4433563;32;20106;-74
2022/01/13 04:14:01;;;;;;;3.53;3.33;;;;;;;1.61;100.00;103699.00;4432102;32;20072;-75
2022/01/13 04:16:28;;;;;;;5.40;5.05;;;;;;;0.55;100.00;103513.50;4396469;32;20087;-74
2022/01/13 04:19:01;;;;;;;3.10;3.00;;;;;;;1.43;100.00;103675.97;4399172;32;20750;-75
2022/01/13 04:21:26;;;;;;;4.03;3.72;;;;;;;1.48;100.00;103695.09;4404408;32;20142;-72
2022/01/13 04:23:56;;;;;;;3.12;3.03;;;;;;;1.52;100.00;103704.72;4412180;32;20586;-73
2022/01/13 04:26:27;;;;;;;3.00;2.90;;;;;;;1.51;100.00;103706.44;4403237;32;20080;-71
2022/01/13 04:29:02;;;;;;;2.95;2.85;;;;;;;1.60;100.00;103698.09;4436284;32;20262;-73
2022/01/13 04:31:28;;;;;;;3.37;3.28;;;;;;;1.37;100.00;103698.22;4425360;32;20178;-72
2022/01/13 04:33:53;;;;;;;3.00;2.85;;;;;;;1.31;100.00;103687.66;4414397;32;20636;-73
2022/01/13 04:36:18;;;;;;;3.00;2.90;;;;;;;1.31;100.00;103689.38;4426393;32;20473;-72
2022/01/13 04:38:44;;;;;;;3.50;3.30;;;;;;;1.35;100.00;103688.63;4419904;32;20675;-74
2022/01/13 04:41:09;;;;;;;3.87;3.67;;;;;;;0.93;100.00;103616.50;4430097;32;20593;-73
2022/01/13 04:43:34;;;;;;;3.72;3.62;;;;;;;1.42;100.00;103689.72;4420311;32;20111;-73
2022/01/13 04:46:00;;;;;;;2.87;2.75;;;;;;;1.46;100.00;103691.59;4428891;31;20087;-73
2022/01/13 04:48:25;;;;;;;2.92;2.83;;;;;;;1.49;100.00;103687.41;4431672;32;20506;-73
2022/01/13 04:50:50;;;;;;;3.60;3.50;;;;;;;1.32;100.00;103684.25;4421415;32;20087;-73
2022/01/13 04:53:16;;;;;;;3.05;2.95;;;;;;;0.70;100.00;103582.06;4427487;32;20137;-73
2022/01/13 04:55:50;;;;;;;3.78;3.67;;;;;;;1.21;100.00;103657.13;4429510;32;20067;-73
2022/01/13 04:58:15;;;;;;;2.65;2.55;;;;;;;1.30;100.00;103682.41;4427666;32;20425;-74
2022/01/13 05:00:40;;;;;;;4.35;4.15;;;;;;;1.30;100.00;103672.94;4426124;32;20076;-73
2022/01/13 05:03:06;;;;;;;2.60;2.50;;;;;;;1.28;100.00;103681.47;4428678;32;20064;-73
2022/01/13 05:05:31;;;;;;;2.90;2.80;;;;;;;1.26;100.00;103668.47;4429564;32;20064;-77
2022/01/13 05:07:56;;;;;;;2.80;2.70;;;;;;;1.26;100.00;103677.97;4426665;32;20115;-74
2022/01/13 05:10:22;;;;;;;3.30;3.20;;;;;;;1.20;100.00;103668.28;4430855;32;20072;-75
2022/01/13 05:12:53;;;;;;;2.60;2.50;;;;;;;1.23;100.00;103668.41;4424448;32;20072;-75
2022/01/13 05:15:25;;;;;;;3.92;3.72;;;;;;;-0.46;100.00;103378.22;4421187;32;20903;-76
2022/01/13 05:20:28;;;;;;;2.70;2.60;;;;;;;1.31;100.00;103671.25;4435818;32;20064;-74
2022/01/13 05:22:54;;;;;;;2.70;2.60;;;;;;;1.31;100.00;103666.06;4424919;32;20150;-74
2022/01/13 05:25:19;;;;;;;3.65;3.45;;;;;;;1.28;100.00;103663.37;4431248;32;20577;-75
2022/01/13 05:27:48;;;;;;;3.65;3.50;;;;;;;1.28;100.00;103651.31;4424232;32;20090;-73
2022/01/13 05:30:15;;;;;;;5.25;3.05;;;;;;;1.15;100.00;103644.84;4430427;32;20060;-75
2022/01/13 05:32:40;;;;;;;3.55;3.45;;;;;;;0.93;100.00;103606.16;4424743;32;20827;-74
2022/01/13 05:35:06;;;;;;;2.85;2.75;;;;;;;1.07;100.00;103632.50;4433209;32;20068;-75
2022/01/13 05:37:31;;;;;;;4.00;3.85;;;;;;;1.22;100.00;103663.16;4419100;32;20738;-73
2022/01/13 05:39:57;;;;;;;2.80;2.70;;;;;;;1.22;100.00;103655.41;4421392;32;20128;-74
2022/01/13 05:42:22;;;;;;;3.30;3.20;;;;;;;1.25;100.00;103661.56;4426463;32;20981;-74
2022/01/13 05:44:48;;;;;;;3.00;2.90;;;;;;;1.20;100.00;103652.75;4426879;32;20087;-75
2022/01/13 05:47:13;;;;;;;3.65;3.35;;;;;;;0.96;100.00;103598.47;4428489;32;20060;-74
2022/01/13 05:49:42;;;;;;;4.40;4.20;;;;;;;1.32;100.00;103660.97;4421201;32;20080;-74
2022/01/13 05:52:11;;;;;;;3.00;2.90;;;;;;;1.34;100.00;103653.22;4425668;32;20562;-72
2022/01/13 05:54:36;;;;;;;5.05;4.85;;;;;;;1.35;100.00;103655.00;4425708;32;20059;-73
2022/01/13 05:57:02;;;;;;;3.00;2.90;;;;;;;0.95;100.00;103600.19;4423606;32;20742;-73
2022/01/13 05:59:28;;;;;;;4.43;4.22;;;;;;;1.25;100.00;103651.22;4428131;32;20068;-71
2022/01/13 06:01:53;;;;;;;4.25;4.05;;;;;;;1.11;100.00;103636.94;4438460;32;20075;-72
2022/01/13 06:04:18;;;;;;;3.10;3.00;;;;;;;1.30;100.00;103669.47;4426038;32;20086;-75
2022/01/13 06:06:44;;;;;;;3.75;3.55;;;;;;;1.28;100.00;103663.37;4438138;32;20555;-74
2022/01/13 06:09:09;;;;;;;3.28;3.05;;;;;;;1.21;100.00;103644.19;4420478;32;20084;-74
2022/01/13 06:11:39;;;;;;;4.55;4.35;;;;;;;1.30;100.00;103656.53;4416045;32;20214;-72
2022/01/13 06:14:05;;;;;;;3.00;2.90;;;;;;;1.25;100.00;103661.56;4443548;32;20125;-73
2022/01/13 06:16:30;;;;;;;4.10;3.90;;;;;;;1.24;100.00;103656.34;4424290;32;20653;-74
2022/01/13 06:18:56;;;;;;;2.97;2.85;;;;;;;1.26;100.00;103677.97;4427830;32;20345;-73
2022/01/13 06:21:21;;;;;;;3.08;2.97;;;;;;;1.22;100.00;103643.34;4438667;32;20193;-76
2022/01/13 06:23:46;;;;;;;3.25;3.15;;;;;;;1.23;100.00;103639.06;4416836;32;22054;-73
2022/01/13 06:26:12;;;;;;;3.28;3.17;;;;;;;1.24;100.00;103631.34;4421850;32;20072;-74
2022/01/13 06:28:37;;;;;;;5.62;5.32;;;;;;;1.23;100.00;103641.66;4417790;32;20088;-72
2022/01/13 06:31:03;;;;;;;3.03;2.92;;;;;;;1.20;100.00;103652.75;4424130;32;20103;-74
2022/01/13 06:33:28;;;;;;;4.97;4.68;;;;;;;1.24;100.00;103654.63;4424347;32;20596;-72
2022/01/13 06:35:54;;;;;;;2.70;2.60;;;;;;;1.15;100.00;103657.78;4419467;32;20469;-73
2022/01/13 06:38:19;;;;;;;2.97;2.87;;;;;;;1.14;100.00;103652.53;4428083;32;20083;-74
2022/01/13 06:40:45;;;;;;;3.45;3.15;;;;;;;1.12;100.00;103655.09;4429593;32;20189;-75
2022/01/13 06:43:10;;;;;;;3.00;2.90;;;;;;;1.07;100.00;103648.88;4427368;32;20072;-72
2022/01/13 06:45:35;;;;;;;4.35;4.15;;;;;;;1.03;100.00;103657.34;4422593;32;20087;-74
2022/01/13 06:48:01;;;;;;;4.62;4.18;;;;;;;-2.35;100.00;103082.56;4423559;32;20551;-73
2022/01/13 06:50:26;;;;;;;3.25;3.15;;;;;;;1.01;100.00;103673.66;4440231;32;20863;-74
2022/01/13 06:52:52;;;;;;;2.80;2.70;;;;;;;0.95;100.00;103666.56;4435709;32;20166;-75
2022/01/13 06:55:17;;;;;;;2.70;2.60;;;;;;;0.95;100.00;103688.09;4428281;32;20092;-74
2022/01/13 06:57:42;;;;;;;4.25;4.05;;;;;;;0.82;100.00;103651.41;4420877;32;20968;-74
2022/01/13 07:00:08;;;;;;;3.35;3.25;;;;;;;0.48;100.00;103598.50;4425436;32;20068;-73
2022/01/13 07:02:34;;;;;;;4.32;4.05;;;;;;;0.67;100.00;103633.66;4425016;32;20471;-74
2022/01/13 07:05:00;;;;;;;4.22;4.03;;;;;;;0.86;100.00;103672.25;4418815;32;20099;-74
2022/01/13 07:07:25;;;;;;;3.75;3.60;;;;;;;0.84;100.00;103683.38;4425474;32;20532;-74
2022/01/13 07:09:51;;;;;;;3.20;3.10;;;;;;;0.68;100.00;103662.16;4426209;32;20431;-73
2022/01/13 07:12:16;;;;;;;2.85;2.75;;;;;;;0.83;100.00;103682.50;4425928;32;20092;-73
2022/01/13 07:14:41;;;;;;;4.40;4.20;;;;;;;0.50;100.00;103621.00;4435440;32;20170;-73
2022/01/13 07:17:07;;;;;;;3.97;3.78;;;;;;;0.83;100.00;103679.03;4424241;32;20082;-73
2022/01/13 07:19:32;;;;;;;5.10;4.90;;;;;;;0.88;100.00;103680.06;4438352;32;20075;-73
2022/01/13 07:21:57;;;;;;;3.25;3.15;;;;;;;0.88;100.00;103690.41;4427398;32;20072;-73
2022/01/13 07:24:23;;;;;;;2.60;2.50;;;;;;;0.35;100.00;103605.81;4423823;32;20423;-73
2022/01/13 07:26:48;;;;;;;2.90;2.80;;;;;;;0.88;100.00;103674.91;4428599;32;20076;-74
2022/01/13 07:29:13;;;;;;;3.83;3.62;;;;;;;0.74;100.00;103659.78;4427071;32;20556;-75
2022/01/13 07:31:39;;;;;;;3.35;3.25;;;;;;;0.85;100.00;103680.84;4426234;32;20075;-74
2022/01/13 07:34:05;;;;;;;2.87;2.78;;;;;;;0.86;100.00;103682.59;4430258;32;20171;-73
2022/01/13 07:36:31;;;;;;;4.70;4.40;;;;;;;0.74;100.00;103670.13;4422120;32;20068;-73
2022/01/13 07:38:56;;;;;;;4.22;3.65;;;;;;;0.89;100.00;103687.03;4440378;32;20082;-73
2022/01/13 07:41:21;;;;;;;2.80;2.70;;;;;;;0.52;100.00;103655.53;4427574;32;20289;-73
2022/01/13 07:43:53;;;;;;;2.80;2.70;;;;;;;0.72;100.00;103700.22;4418720;32;20551;-74
2022/01/13 07:46:18;;;;;;;3.25;3.12;;;;;;;0.73;100.00;103698.50;4427259;32;20367;-74
2022/01/13 07:48:43;;;;;;;4.53;4.32;;;;;;;-0.40;100.00;103512.62;4421707;32;20167;-73
2022/01/13 07:51:09;;;;;;;3.90;3.70;;;;;;;0.73;100.00;103701.09;4429895;32;20087;-74
2022/01/13 07:53:34;;;;;;;4.60;4.40;;;;;;;0.44;100.00;103645.72;4424309;32;20314;-74
2022/01/13 07:55:59;;;;;;;3.78;3.58;;;;;;;0.86;100.00;103707.56;4437209;32;20088;-74
2022/01/13 07:58:25;;;;;;;3.72;3.53;;;;;;;0.13;100.00;103582.59;4427648;32;20128;-74
2022/01/13 08:00:50;;;;;;;2.80;2.70;;;;;;;0.86;100.00;103710.16;4427363;31;20589;-74
2022/01/13 08:03:16;;;;;;;2.80;2.70;;;;;;;0.86;100.00;103720.50;4428827;31;20076;-74
2022/01/13 08:05:41;;;;;;;6.57;6.12;;;;;;;0.83;100.00;103716.09;4425089;31;20068;-74
2022/01/13 08:08:07;;;;;;;3.00;2.90;;;;;;;0.71;100.00;103693.25;4423846;31;20324;-72
2022/01/13 08:10:32;;;;;;;4.18;3.97;;;;;;;0.42;100.00;103643.06;4427838;31;20075;-73
2022/01/13 08:12:57;;;;;;;2.70;2.60;;;;;;;0.33;100.00;103635.00;4426350;32;20052;-73
2022/01/13 08:15:23;;;;;;;3.03;2.92;;;;;;;0.65;100.00;103721.47;4424535;32;20064;-74
2022/01/13 08:20:33;;;;;;;6.15;5.65;;;;;;;0.32;100.00;103641.88;4433640;32;20130;-74
2022/01/13 08:22:58;;;;;;;2.90;2.80;;;;;;;-0.29;100.00;103536.25;4437186;32;20076;-74
2022/01/13 08:25:24;;;;;;;3.22;3.12;;;;;;;0.80;100.00;103721.16;4420982;32;20491;-74
2022/01/13 08:27:49;;;;;;;3.42;3.33;;;;;;;0.85;100.00;103718.75;4421289;32;20705;-73
2022/01/13 08:30:14;;;;;;;3.50;3.33;;;;;;;0.43;100.00;103685.31;4416531;32;20962;-74
2022/01/13 08:32:40;;;;;;;4.65;4.45;;;;;;;-0.06;100.00;103565.50;4422020;32;20080;-74
2022/01/13 08:35:05;;;;;;;4.00;3.70;;;;;;;0.83;100.00;103713.53;4416849;32;20356;-74
2022/01/13 08:37:32;;;;;;;4.55;4.35;;;;;;;0.86;100.00;103720.50;4420904;32;20088;-73
2022/01/13 08:39:58;;;;;;;3.37;3.17;;;;;;;0.81;100.00;103719.47;4424979;32;20129;-73
2022/01/13 08:42:24;;;;;;;3.05;2.95;;;;;;;0.98;100.00;103733.88;4438477;32;20091;-74
2022/01/13 08:44:49;;;;;;;2.80;2.70;;;;;;;0.91;100.00;103704.34;4421234;32;20438;-72
2022/01/13 08:47:15;;;;;;;3.00;2.90;;;;;;;1.06;100.00;103729.84;4436337;32;20068;-73
2022/01/13 08:49:41;;;;;;;4.47;4.28;;;;;;;1.10;100.00;103729.19;4423857;32;20576;-74
2022/01/13 08:52:07;;;;;;;3.00;2.90;;;;;;;1.00;100.00;103724.47;4434990;32;20166;-72
2022/01/13 08:54:32;;;;;;;4.00;3.83;;;;;;;1.05;100.00;103725.53;4421005;31;20273;-72
2022/01/13 08:57:00;;;;;;;3.00;2.90;;;;;;;0.78;100.00;103734.03;4412072;32;20071;-73
2022/01/13 08:59:26;;;;;;;3.12;3.03;;;;;;;0.54;100.00;103652.97;4414103;32;20052;-72
2022/01/13 09:01:53;;;;;;;3.00;2.90;;;;;;;0.73;100.00;103670.06;4422739;32;20631;-72
2022/01/13 09:04:18;;;;;;;3.00;2.90;;;;;;;0.49;100.00;103629.56;4422570;32;20585;-72
2022/01/13 09:06:43;;;;;;;4.12;3.72;;;;;;;0.95;100.00;103692.41;4426278;32;20089;-73
2022/01/13 09:09:09;;;;;;;2.75;2.65;;;;;;;1.17;100.00;103723.38;4422378;32;20068;-74
2022/01/13 09:11:34;;;;;;;5.03;4.80;;;;;;;0.75;100.00;103640.84;4433904;32;20079;-73
2022/01/13 09:14:00;;;;;;;3.95;3.75;;;;;;;1.32;100.00;103736.00;4426746;32;20695;-72
2022/01/13 09:16:26;;;;;;;3.30;3.20;;;;;;;1.32;100.00;103729.91;4437643;32;20086;-73
2022/01/13 09:21:20;;;;;;;3.12;3.03;;;;;;;1.32;100.00;103735.09;4428766;32;20053;-72
2022/01/13 09:23:45;;;;;;;2.70;2.60;;;;;;;0.73;100.00;103623.53;4411492;32;21026;-75
2022/01/13 09:26:10;;;;;;;2.80;2.70;;;;;;;1.33;100.00;103721.34;4412455;32;20738;-72
2022/01/13 09:28:36;;;;;;;4.35;4.15;;;;;;;1.45;100.00;103728.66;4412134;32;20096;-74
2022/01/13 09:31:02;;;;;;;4.22;3.37;;;;;;;1.47;100.00;103734.75;4428228;32;20706;-73
2022/01/13 09:33:27;;;;;;;4.50;3.67;;;;;;;1.47;100.00;103739.94;4425113;32;20082;-74
2022/01/13 09:35:53;;;;;;;3.35;3.17;;;;;;;1.57;100.00;103745.47;4428909;32;20455;-72
2022/01/13 09:38:18;;;;;;;3.20;3.05;;;;;;;1.01;100.00;103640.03;4428136;32;20178;-75
2022/01/13 09:40:45;;;;;;;3.05;2.90;;;;;;;1.69;100.00;103751.91;4428803;32;20960;-73
2022/01/13 09:43:11;;;;;;;3.20;3.10;;;;;;;1.66;100.00;103747.47;4422306;32;20345;-74
2022/01/13 09:45:36;;;;;;;4.90;4.65;;;;;;;1.66;100.00;103744.91;4423386;32;20079;-72
2022/01/13 09:48:01;;;;;;;3.80;3.50;;;;;;;1.81;100.00;103751.44;4420356;32;20475;-72
2022/01/13 09:50:27;;;;;;;3.92;3.78;;;;;;;1.82;100.00;103732.47;4440249;32;20706;-72
2022/01/13 09:52:52;;;;;;;4.28;3.97;;;;;;;0.37;99.73;103487.91;4436085;32;20078;-72
2022/01/13 09:55:19;;;;;;;2.80;2.70;;;;;;;1.55;99.31;103685.00;4424184;32;20159;-73
2022/01/13 09:57:47;;;;;;;3.55;3.45;;;;;;;1.89;99.28;103740.50;4415275;32;20064;-73
2022/01/13 10:00:14;;;;;;;3.37;3.22;;;;;;;2.13;99.12;103744.72;4425785;32;20773;-72
2022/01/13 10:02:40;;;;;;;7.32;6.82;;;;;;;2.21;98.94;103738.06;4440055;32;20099;-73
2022/01/13 10:05:05;;;;;;;4.00;3.78;;;;;;;2.15;97.89;103735.28;4430380;32;20067;-73
2022/01/13 10:07:31;;;;;;;4.62;4.43;;;;;;;2.18;97.56;103738.84;4419705;32;20080;-73
2022/01/13 10:09:58;;;;;;;3.00;2.90;;;;;;;2.24;97.32;103750.25;4437026;32;20120;-73
2022/01/13 10:12:30;;;;;;;3.37;3.28;;;;;;;1.27;97.18;103547.78;4435557;32;20219;-73
2022/01/13 10:17:26;;;;;;;3.20;3.08;;;;;;;1.73;95.18;103656.25;4434656;32;20059;-73
2022/01/13 10:19:55;;;;;;;3.42;3.33;;;;;;;2.32;95.33;103738.41;4439046;32;20078;-73
2022/01/13 10:22:25;;;;;;;2.95;2.85;;;;;;;2.24;95.14;103742.47;4424867;32;20064;-73
2022/01/13 10:24:54;;;;;;;3.62;3.42;;;;;;;2.34;95.32;103729.84;4408971;32;20069;-73
2022/01/13 10:27:21;;;;;;;3.20;3.10;;;;;;;2.50;95.48;103738.97;4398467;32;20317;-72
2022/01/13 10:29:56;;;;;;;3.53;3.15;;;;;;;2.40;95.03;103731.75;4391854;32;20645;-73
2022/01/13 10:32:23;;;;;;;6.18;4.20;;;;;;;2.61;95.32;103747.09;4406133;32;20186;-73
2022/01/13 10:34:59;;;;;;;2.70;2.60;;;;;;;1.94;94.97;103614.59;4392288;32;20210;-74
2022/01/13 10:37:37;;;;;;;3.00;2.90;;;;;;;2.36;94.37;103675.47;4395043;32;20083;-73
2022/01/13 10:40:11;;;;;;;3.62;3.42;;;;;;;2.66;93.67;103745.50;4393182;32;20686;-74
2022/01/13 10:45:20;;;;;;;2.70;2.60;;;;;;;2.62;93.22;103735.84;4420647;32;20057;-73
2022/01/13 10:47:54;;;;;;;3.08;2.97;;;;;;;2.72;93.32;103742.19;4392887;32;20075;-73
2022/01/13 10:50:19;;;;;;;3.00;2.90;;;;;;;2.88;93.17;103736.62;4410651;32;20079;-73
2022/01/13 10:52:45;;;;;;;2.90;2.80;;;;;;;-0.72;92.37;103111.66;4395728;32;20461;-73
2022/01/13 10:55:12;;;;;;;4.85;4.65;;;;;;;2.88;92.04;103734.03;4395593;32;20077;-73
2022/01/13 10:57:37;;;;;;;4.55;4.35;;;;;;;2.94;92.03;103707.38;4405367;32;20661;-73
2022/01/13 11:00:04;;;;;;;3.15;3.05;;;;;;;3.14;91.53;103714.00;4392843;32;20077;-74
2022/01/13 11:02:29;;;;;;;4.55;4.35;;;;;;;3.22;90.95;103708.16;4392521;32;20500;-73
2022/01/13 11:04:55;;;;;;;3.30;3.20;;;;;;;3.20;90.13;103716.75;4395615;32;20438;-73
2022/01/13 11:07:27;;;;;;;3.10;3.00;;;;;;;3.25;90.24;103713.41;4399422;32;20161;-73
2022/01/13 11:09:54;;;;;;;3.62;3.42;;;;;;;3.33;89.38;103714.53;4401349;32;20409;-74
2022/01/13 11:12:36;;;;;;;3.35;3.25;;;;;;;3.49;89.29;103721.87;4399045;32;20322;-74
2022/01/13 11:15:05;;;;;;;3.60;3.42;;;;;;;3.59;88.90;103678.84;4416274;32;20401;-73
2022/01/13 11:17:30;;;;;;;4.28;4.07;;;;;;;3.72;87.00;103706.00;4391450;32;20080;-73
2022/01/13 11:19:56;;;;;;;4.45;4.10;;;;;;;3.68;87.16;103673.84;4391889;32;20594;-73
2022/01/13 11:22:22;;;;;;;3.60;3.50;;;;;;;3.86;86.36;103683.81;4399064;32;20183;-74
2022/01/13 11:24:47;;;;;;;4.57;4.07;;;;;;;4.03;85.13;103691.13;4403422;32;20095;-73
2022/01/13 11:27:12;;;;;;;3.20;3.10;;;;;;;4.09;84.82;103688.66;4425714;32;20598;-73
2022/01/13 11:29:39;;;;;;;4.78;4.57;;;;;;;3.71;84.29;103587.34;4431986;32;20100;-73
2022/01/13 11:32:07;;;;;;;3.10;3.00;;;;;;;4.05;83.97;103611.47;4435107;32;20202;-73
2022/01/13 11:34:32;;;;;;;5.45;5.15;;;;;;;4.35;83.89;103677.16;4424505;32;20137;-73
2022/01/13 11:36:58;;;;;;;4.35;4.10;;;;;;;4.55;83.27;103674.97;4434972;32;20094;-74
2022/01/13 11:39:35;;;;;;;3.10;3.00;;;;;;;4.72;83.38;103664.91;4424413;32;20140;-73
2022/01/13 11:42:05;;;;;;;3.50;3.33;;;;;;;4.88;81.83;103662.63;4426104;32;20082;-73
2022/01/13 11:44:30;;;;;;;3.85;3.65;;;;;;;5.08;81.36;103668.19;4425934;32;20568;-74
2022/01/13 11:46:56;;;;;;;3.70;3.55;;;;;;;4.72;81.63;103586.00;4430968;32;20082;-73
2022/01/13 11:49:30;;;;;;;3.20;3.10;;;;;;;5.25;80.14;103651.16;4428526;32;20076;-73
2022/01/13 11:52:10;;;;;;;3.50;3.40;;;;;;;5.28;78.70;103629.50;4429270;32;20055;-74
2022/01/13 11:54:36;;;;;;;4.07;3.87;;;;;;;5.37;78.55;103646.16;4431828;32;20427;-73